createdAt,value
2018-08-11T00:01:46.894Z,16.20
2018-08-11T00:04:16.220Z,16.10
2018-08-11T00:06:45.601Z,16.00
2018-08-11T00:09:14.944Z,16.10
2018-08-11T00:11:44.332Z,16.10
2018-08-11T00:14:13.667Z,16.10
2018-08-11T00:16:43.207Z,16.00
2018-08-11T00:19:12.534Z,16.00
2018-08-11T00:21:41.862Z,16.10
2018-08-11T00:24:11.186Z,16.10
2018-08-11T00:26:40.530Z,16.00
2018-08-11T00:29:09.860Z,16.00
2018-08-11T00:31:39.196Z,16.10
2018-08-11T00:34:08.513Z,15.90
2018-08-11T00:36:37.890Z,15.80
2018-08-11T00:39:09.659Z,15.90
2018-08-11T00:41:39.026Z,15.80
2018-08-11T00:44:09.134Z,15.70
2018-08-11T00:46:38.510Z,15.80
2018-08-11T00:49:07.891Z,15.90
2018-08-11T00:51:37.204Z,15.70
2018-08-11T00:54:06.686Z,15.70
2018-08-11T00:56:36.033Z,15.70
2018-08-11T00:59:05.374Z,15.70
2018-08-11T01:01:34.711Z,15.60
2018-08-11T01:04:04.076Z,15.60
2018-08-11T01:06:33.400Z,15.70
2018-08-11T01:09:02.806Z,15.70
2018-08-11T01:11:32.131Z,15.80
2018-08-11T01:14:01.489Z,15.70
2018-08-11T01:16:30.867Z,15.80
2018-08-11T01:19:00.209Z,15.80
2018-08-11T01:21:29.525Z,15.80
2018-08-11T01:23:58.974Z,15.70
2018-08-11T01:26:28.311Z,15.60
2018-08-11T01:28:57.658Z,15.60
2018-08-11T01:31:27.026Z,15.60
2018-08-11T01:33:56.374Z,15.60
2018-08-11T01:36:25.892Z,15.60
2018-08-11T01:38:55.258Z,15.60
2018-08-11T01:41:24.630Z,15.70
2018-08-11T01:43:53.935Z,15.60
2018-08-11T01:46:23.279Z,15.60
2018-08-11T01:48:52.941Z,15.50
2018-08-11T01:51:22.294Z,15.70
2018-08-11T01:53:51.594Z,15.70
2018-08-11T01:56:20.941Z,15.70
2018-08-11T01:58:50.271Z,15.60
2018-08-11T02:01:19.634Z,15.50
2018-08-11T02:03:48.963Z,15.50
2018-08-11T02:06:18.437Z,15.40
2018-08-11T02:08:47.793Z,15.50
2018-08-11T02:11:17.189Z,15.50
2018-08-11T02:13:46.519Z,15.60
2018-08-11T02:16:15.868Z,15.50
2018-08-11T02:18:45.180Z,15.50
2018-08-11T02:21:14.539Z,15.60
2018-08-11T02:23:43.883Z,15.80
2018-08-11T02:26:13.237Z,15.60
2018-08-11T02:28:42.573Z,15.40
2018-08-11T02:31:11.938Z,15.50
2018-08-11T02:33:41.264Z,15.30
2018-08-11T02:36:10.592Z,15.30
2018-08-11T02:38:39.892Z,15.40
2018-08-11T02:41:09.250Z,15.30
2018-08-11T02:43:38.565Z,15.50
2018-08-11T02:46:07.948Z,15.60
2018-08-11T02:48:37.296Z,15.30
2018-08-11T02:51:06.613Z,15.20
2018-08-11T02:55:56.514Z,15.40
2018-08-11T02:58:25.867Z,15.30
2018-08-11T03:00:55.180Z,15.30
2018-08-11T03:03:24.548Z,15.10
2018-08-11T03:05:53.898Z,14.90
2018-08-11T03:08:23.263Z,15.30
2018-08-11T03:10:52.554Z,15.30
2018-08-11T03:13:25.095Z,15.20
2018-08-11T03:15:54.442Z,14.90
2018-08-11T03:18:23.805Z,14.90
2018-08-11T03:20:53.131Z,15.00
2018-08-11T03:23:22.468Z,15.10
2018-08-11T03:25:51.793Z,15.10
2018-08-11T03:28:21.132Z,15.20
2018-08-11T03:30:50.454Z,15.20
2018-08-11T03:33:19.919Z,15.10
2018-08-11T03:35:49.273Z,15.30
2018-08-11T03:38:18.609Z,15.40
2018-08-11T03:40:47.957Z,15.10
2018-08-11T03:43:17.357Z,15.10
2018-08-11T03:45:46.647Z,14.80
2018-08-11T03:48:15.988Z,14.80
2018-08-11T03:50:45.303Z,14.80
2018-08-11T03:53:14.586Z,15.00
2018-08-11T03:55:43.926Z,15.30
2018-08-11T03:58:13.213Z,15.40
2018-08-11T04:00:42.566Z,15.20
2018-08-11T04:03:11.863Z,15.20
2018-08-11T04:05:41.228Z,15.40
2018-08-11T04:08:10.522Z,15.60
2018-08-11T04:10:39.886Z,15.80
2018-08-11T04:13:09.230Z,15.90
2018-08-11T04:15:38.574Z,16.00
2018-08-11T04:18:08.295Z,16.10
2018-08-11T04:20:38.065Z,16.10
2018-08-11T04:23:07.473Z,16.10
2018-08-11T04:25:36.810Z,16.20
2018-08-11T04:28:06.102Z,16.30
2018-08-11T04:30:35.525Z,16.30
2018-08-11T04:33:04.827Z,16.30
2018-08-11T04:35:34.398Z,16.10
2018-08-11T04:38:04.086Z,15.90
2018-08-11T04:40:33.482Z,16.10
2018-08-11T04:43:03.242Z,16.10
2018-08-11T04:45:32.579Z,15.90
2018-08-11T04:48:01.933Z,15.90
2018-08-11T04:50:31.647Z,16.10
2018-08-11T04:53:00.962Z,16.20
2018-08-11T04:55:30.430Z,16.20
2018-08-11T04:57:59.765Z,16.40
2018-08-11T05:00:29.079Z,16.60
2018-08-11T05:02:58.862Z,16.40
2018-08-11T05:05:28.174Z,16.50
2018-08-11T05:07:57.493Z,16.60
2018-08-11T05:10:26.847Z,16.60
2018-08-11T05:12:56.175Z,16.70
2018-08-11T05:15:25.576Z,16.80
2018-08-11T05:17:54.912Z,16.90
2018-08-11T05:20:24.237Z,16.90
2018-08-11T05:22:53.552Z,16.90
2018-08-11T05:25:22.854Z,17.20
2018-08-11T05:27:52.145Z,17.10
2018-08-11T05:30:21.464Z,17.00
2018-08-11T05:32:50.800Z,17.00
2018-08-11T05:35:20.107Z,17.00
2018-08-11T05:37:49.438Z,17.10
2018-08-11T05:40:18.722Z,17.30
2018-08-11T05:42:48.037Z,17.40
2018-08-11T05:45:17.310Z,17.30
2018-08-11T05:47:46.693Z,17.40
2018-08-11T05:50:16.010Z,17.40
2018-08-11T05:52:45.520Z,17.30
2018-08-11T05:55:15.044Z,17.40
2018-08-11T05:57:44.336Z,17.50
2018-08-11T06:00:13.652Z,17.50
2018-08-11T06:02:42.963Z,17.80
2018-08-11T06:05:12.614Z,18.10
2018-08-11T06:07:41.934Z,18.30
2018-08-11T06:10:11.288Z,18.70
2018-08-11T06:12:40.776Z,18.40
2018-08-11T06:15:10.098Z,18.30
2018-08-11T06:17:39.414Z,18.60
2018-08-11T06:20:09.630Z,18.80
2018-08-11T06:22:39.387Z,19.00
2018-08-11T06:25:10.197Z,19.30
2018-08-11T06:27:39.719Z,19.60
2018-08-11T06:30:10.108Z,19.80
2018-08-11T06:32:39.774Z,20.10
2018-08-11T06:35:09.706Z,20.20
2018-08-11T06:37:39.013Z,20.10
2018-08-11T06:40:08.410Z,19.90
2018-08-11T06:42:37.738Z,20.00
2018-08-11T06:45:07.064Z,20.20
2018-08-11T06:47:36.418Z,20.70
2018-08-11T06:50:06.263Z,20.80
2018-08-11T06:52:35.594Z,21.10
2018-08-11T06:55:05.332Z,21.30
2018-08-11T06:57:34.648Z,20.80
2018-08-11T07:00:03.983Z,20.80
2018-08-11T07:02:33.295Z,20.80
2018-08-11T07:05:02.586Z,20.90
2018-08-11T07:07:31.922Z,21.10
2018-08-11T07:10:01.203Z,20.80
2018-08-11T07:12:30.581Z,21.00
2018-08-11T07:14:59.902Z,21.00
2018-08-11T07:17:29.232Z,21.00
2018-08-11T07:19:58.518Z,20.90
2018-08-11T07:22:27.891Z,21.50
2018-08-11T07:24:57.201Z,21.50
2018-08-11T07:27:26.539Z,21.70
2018-08-11T07:29:55.818Z,21.50
2018-08-11T07:32:25.319Z,21.80
2018-08-11T07:37:30.189Z,22.20
2018-08-11T07:40:00.011Z,22.50
2018-08-11T07:42:29.394Z,23.60
2018-08-11T07:44:58.678Z,22.90
2018-08-11T07:47:28.066Z,22.10
2018-08-11T07:49:57.397Z,22.20
2018-08-11T07:52:26.717Z,22.50
2018-08-11T07:54:56.013Z,21.80
2018-08-11T07:57:25.404Z,21.60
2018-08-11T07:59:55.201Z,22.20
2018-08-11T08:02:24.926Z,22.50
2018-08-11T08:04:54.258Z,23.10
2018-08-11T08:07:23.537Z,23.50
2018-08-11T08:09:52.878Z,23.30
2018-08-11T08:12:22.213Z,23.30
2018-08-11T08:14:51.909Z,23.30
2018-08-11T08:17:21.254Z,23.40
2018-08-11T08:19:50.582Z,23.80
2018-08-11T08:22:19.869Z,23.30
2018-08-11T08:24:49.193Z,23.10
2018-08-11T08:27:19.618Z,23.80
2018-08-11T08:29:49.053Z,23.80
2018-08-11T08:32:18.358Z,24.10
2018-08-11T08:34:47.680Z,24.30
2018-08-11T08:37:16.967Z,23.60
2018-08-11T08:39:46.291Z,24.50
2018-08-11T08:42:16.331Z,24.60
2018-08-11T08:44:45.659Z,25.00
2018-08-11T08:47:15.022Z,24.60
2018-08-11T08:49:44.327Z,24.30
2018-08-11T08:52:13.668Z,24.10
2018-08-11T08:54:42.979Z,24.50
2018-08-11T08:57:12.310Z,24.50
2018-08-11T08:59:41.583Z,24.00
2018-08-11T09:02:10.906Z,24.20
2018-08-11T09:04:40.192Z,24.20
2018-08-11T09:07:09.591Z,25.00
2018-08-11T09:09:38.909Z,24.80
2018-08-11T09:12:09.059Z,24.60
2018-08-11T09:14:38.346Z,24.30
2018-08-11T09:17:07.754Z,25.80
2018-08-11T09:19:37.059Z,26.70
2018-08-11T09:22:06.363Z,27.50
2018-08-11T09:24:36.136Z,26.80
2018-08-11T09:27:05.487Z,27.50
2018-08-11T09:29:34.754Z,27.90
2018-08-11T09:32:04.471Z,27.70
2018-08-11T09:34:33.782Z,26.70
2018-08-11T09:37:03.108Z,26.20
2018-08-11T09:39:32.463Z,26.20
2018-08-11T09:42:01.802Z,27.20
2018-08-11T09:44:31.142Z,26.90
2018-08-11T09:47:00.468Z,26.20
2018-08-11T09:49:29.832Z,26.40
2018-08-11T09:51:59.128Z,26.70
2018-08-11T09:54:28.478Z,27.00
2018-08-11T09:56:57.791Z,27.80
2018-08-11T09:59:27.124Z,27.90
2018-08-11T10:02:01.751Z,27.00
2018-08-11T10:04:31.101Z,27.00
2018-08-11T10:07:00.416Z,26.60
2018-08-11T10:09:30.132Z,26.50
2018-08-11T10:11:59.901Z,27.00
2018-08-11T10:14:29.253Z,26.30
2018-08-11T10:16:58.599Z,25.80
2018-08-11T10:19:27.963Z,25.00
2018-08-11T10:21:57.261Z,24.00
2018-08-11T10:24:26.591Z,24.40
2018-08-11T10:26:55.895Z,25.10
2018-08-11T10:29:25.210Z,25.50
2018-08-11T10:31:54.511Z,26.30
2018-08-11T10:34:23.825Z,26.40
2018-08-11T10:36:53.175Z,25.60
2018-08-11T10:39:22.498Z,25.40
2018-08-11T10:41:52.215Z,25.00
2018-08-11T10:44:21.550Z,24.60
2018-08-11T10:46:50.818Z,24.40
2018-08-11T10:49:20.138Z,23.90
2018-08-11T10:51:49.828Z,23.30
2018-08-11T10:54:19.142Z,23.50
2018-08-11T10:56:48.945Z,24.20
2018-08-11T10:59:18.242Z,24.50
2018-08-11T11:01:47.601Z,24.60
2018-08-11T11:04:16.894Z,24.60
2018-08-11T11:06:46.265Z,24.00
2018-08-11T11:09:15.553Z,23.70
2018-08-11T11:11:45.003Z,24.20
2018-08-11T11:14:14.410Z,25.80
2018-08-11T11:16:43.775Z,27.00
2018-08-11T11:19:13.074Z,28.20
2018-08-11T11:21:42.407Z,28.20
2018-08-11T11:24:11.707Z,28.30
2018-08-11T11:26:41.050Z,27.80
2018-08-11T11:29:10.335Z,27.50
2018-08-11T11:31:39.655Z,27.90
2018-08-11T11:34:08.970Z,27.70
2018-08-11T11:36:38.320Z,28.50
2018-08-11T11:39:08.811Z,29.00
2018-08-11T11:41:39.066Z,28.00
2018-08-11T11:44:08.787Z,26.80
2018-08-11T11:46:38.198Z,27.10
2018-08-11T11:49:07.589Z,25.70
2018-08-11T11:51:36.897Z,26.00
2018-08-11T11:54:06.205Z,26.60
2018-08-11T11:56:35.515Z,26.20
2018-08-11T11:59:04.857Z,25.80
2018-08-11T12:01:34.171Z,26.80
2018-08-11T12:04:03.573Z,27.90
2018-08-11T12:06:32.890Z,27.20
2018-08-11T12:09:02.253Z,26.50
2018-08-11T12:11:31.554Z,26.30
2018-08-11T12:14:00.899Z,26.40
2018-08-11T12:16:30.212Z,26.20
2018-08-11T12:18:59.533Z,26.40
2018-08-11T12:21:28.826Z,26.70
2018-08-11T12:23:58.194Z,27.30
2018-08-11T12:26:27.507Z,27.90
2018-08-11T12:28:56.818Z,28.60
2018-08-11T12:31:26.146Z,29.00
2018-08-11T12:33:55.465Z,29.70
2018-08-11T12:36:24.772Z,27.90
2018-08-11T12:38:54.095Z,27.50
2018-08-11T12:41:23.426Z,26.40
2018-08-11T12:43:52.777Z,25.60
2018-08-11T12:46:22.084Z,25.40
2018-08-11T12:48:51.431Z,26.10
2018-08-11T12:51:20.765Z,27.10
2018-08-11T12:53:50.471Z,28.50
2018-08-11T12:56:19.810Z,28.70
2018-08-11T12:58:49.113Z,28.20
2018-08-11T13:01:18.452Z,28.10
2018-08-11T13:03:47.757Z,27.50
2018-08-11T13:06:17.114Z,27.00
2018-08-11T13:08:46.406Z,26.50
2018-08-11T13:11:15.775Z,26.20
2018-08-11T13:13:45.086Z,25.60
2018-08-11T13:16:14.412Z,25.10
2018-08-11T13:18:43.717Z,24.80
2018-08-11T13:21:13.329Z,24.90
2018-08-11T13:23:42.623Z,24.70
2018-08-11T13:26:11.946Z,25.80
2018-08-11T13:28:41.291Z,27.20
2018-08-11T13:31:10.631Z,27.80
2018-08-11T13:33:39.910Z,27.40
2018-08-11T13:36:09.366Z,26.80
2018-08-11T13:38:38.790Z,27.30
2018-08-11T13:41:08.482Z,27.90
2018-08-11T13:43:37.846Z,27.30
2018-08-11T13:46:07.124Z,26.50
2018-08-11T13:48:36.472Z,26.50
2018-08-11T13:51:05.775Z,26.60
2018-08-11T13:53:35.097Z,26.90
2018-08-11T13:56:04.425Z,26.70
2018-08-11T13:58:33.754Z,26.30
2018-08-11T14:01:03.469Z,25.80
2018-08-11T14:03:33.181Z,25.90
2018-08-11T14:06:02.514Z,26.30
2018-08-11T14:08:31.867Z,26.70
2018-08-11T14:11:01.184Z,26.80
2018-08-11T14:13:30.531Z,26.70
2018-08-11T14:15:59.822Z,26.40
2018-08-11T14:18:29.351Z,26.60
2018-08-11T14:20:58.634Z,26.80
2018-08-11T14:23:28.195Z,26.90
2018-08-11T14:25:57.508Z,26.80
2018-08-11T14:28:26.880Z,26.70
2018-08-11T14:30:56.167Z,26.50
2018-08-11T14:33:25.493Z,26.70
2018-08-11T14:35:54.799Z,26.60
2018-08-11T14:38:24.117Z,26.30
2018-08-11T14:40:53.448Z,26.20
2018-08-11T14:43:22.755Z,26.20
2018-08-11T14:45:52.108Z,25.70
2018-08-11T14:48:21.442Z,25.30
2018-08-11T14:50:50.778Z,25.20
2018-08-11T14:53:20.067Z,24.90
2018-08-11T14:55:49.440Z,24.50
2018-08-11T14:58:18.750Z,24.50
2018-08-11T15:00:48.110Z,24.60
2018-08-11T15:03:17.433Z,24.60
2018-08-11T15:05:47.221Z,24.60
2018-08-11T15:08:16.564Z,24.90
2018-08-11T15:10:45.902Z,24.80
2018-08-11T15:13:15.232Z,24.80
2018-08-11T15:15:44.570Z,24.60
2018-08-11T15:18:13.934Z,24.80
2018-08-11T15:20:43.285Z,24.90
2018-08-11T15:23:12.613Z,24.80
2018-08-11T15:25:41.946Z,24.80
2018-08-11T15:28:11.271Z,24.50
2018-08-11T15:30:40.621Z,24.70
2018-08-11T15:33:09.961Z,24.80
2018-08-11T15:35:39.748Z,24.80
2018-08-11T15:38:09.053Z,24.80
2018-08-11T15:40:38.425Z,24.80
2018-08-11T15:43:07.735Z,24.90
2018-08-11T15:45:37.115Z,24.60
2018-08-11T15:48:06.501Z,24.70
2018-08-11T15:50:35.867Z,24.70
2018-08-11T15:53:05.182Z,24.80
2018-08-11T15:55:34.503Z,24.80
2018-08-11T15:58:03.838Z,24.50
2018-08-11T16:00:33.164Z,24.20
2018-08-11T16:03:02.484Z,24.40
2018-08-11T16:05:31.781Z,24.60
2018-08-11T16:08:01.117Z,24.50
2018-08-11T16:10:30.801Z,24.40
2018-08-11T16:13:00.135Z,24.40
2018-08-11T16:15:29.463Z,24.20
2018-08-11T16:17:58.817Z,24.00
2018-08-11T16:20:28.094Z,24.00
2018-08-11T16:22:57.437Z,24.20
2018-08-11T16:25:26.738Z,24.30
2018-08-11T16:27:56.076Z,24.30
2018-08-11T16:30:25.428Z,24.20
2018-08-11T16:32:54.727Z,24.10
2018-08-11T16:35:24.049Z,23.70
2018-08-11T16:37:53.416Z,23.50
2018-08-11T16:40:22.777Z,23.40
2018-08-11T16:42:52.115Z,23.60
2018-08-11T16:45:21.422Z,23.70
2018-08-11T16:47:50.822Z,23.80
2018-08-11T16:50:20.375Z,23.70
2018-08-11T16:52:49.710Z,23.90
2018-08-11T16:55:18.994Z,23.90
2018-08-11T16:57:48.375Z,23.80
2018-08-11T17:00:17.695Z,23.70
2018-08-11T17:02:47.007Z,23.50
2018-08-11T17:05:16.336Z,23.50
2018-08-11T17:07:45.641Z,23.50
2018-08-11T17:10:14.979Z,23.60
2018-08-11T17:12:44.308Z,23.50
2018-08-11T17:15:13.643Z,23.50
2018-08-11T17:17:42.991Z,23.30
2018-08-11T17:20:12.357Z,23.20
2018-08-11T17:22:41.690Z,23.30
2018-08-11T17:25:11.052Z,23.30
2018-08-11T17:27:40.372Z,23.00
2018-08-11T17:30:10.210Z,22.80
2018-08-11T17:32:39.607Z,22.90
2018-08-11T17:35:08.895Z,23.00
2018-08-11T17:37:38.202Z,23.10
2018-08-11T17:40:08.106Z,23.10
2018-08-11T17:42:37.576Z,22.90
2018-08-11T17:45:06.911Z,23.10
2018-08-11T17:47:36.232Z,22.90
2018-08-11T17:50:06.121Z,22.80
2018-08-11T17:52:35.434Z,22.70
2018-08-11T17:55:04.805Z,22.50
2018-08-11T17:57:34.137Z,22.40
2018-08-11T18:00:03.426Z,22.30
2018-08-11T18:02:32.763Z,22.30
2018-08-11T18:05:02.046Z,22.30
2018-08-11T18:07:31.869Z,22.10
2018-08-11T18:10:01.194Z,22.00
2018-08-11T18:12:30.564Z,21.90
2018-08-11T18:14:59.890Z,22.10
2018-08-11T18:17:29.238Z,21.90
2018-08-11T18:19:58.575Z,21.80
2018-08-11T18:22:27.918Z,21.70
2018-08-11T18:24:57.188Z,21.60
2018-08-11T18:27:26.523Z,21.50
2018-08-11T18:29:55.862Z,21.40
2018-08-11T18:32:25.198Z,21.30
2018-08-11T18:34:54.489Z,21.20
2018-08-11T18:37:23.857Z,21.10
2018-08-11T18:39:53.173Z,21.10
2018-08-11T18:42:22.562Z,21.10
2018-08-11T18:44:51.927Z,21.20
2018-08-11T18:47:21.269Z,21.00
2018-08-11T18:49:50.573Z,21.00
2018-08-11T18:52:19.953Z,20.80
2018-08-11T18:54:49.262Z,20.80
2018-08-11T18:57:18.564Z,20.60
2018-08-11T18:59:47.890Z,20.60
2018-08-11T19:02:17.201Z,20.60
2018-08-11T19:04:46.567Z,20.50
2018-08-11T19:07:16.011Z,20.50
2018-08-11T19:09:45.325Z,20.40
2018-08-11T19:12:14.618Z,20.30
2018-08-11T19:14:43.951Z,20.20
2018-08-11T19:17:13.255Z,20.10
2018-08-11T19:19:42.687Z,20.00
2018-08-11T19:22:11.991Z,20.10
2018-08-11T19:24:41.367Z,20.20
2018-08-11T19:27:10.673Z,20.20
2018-08-11T19:29:39.987Z,20.10
2018-08-11T19:32:09.264Z,20.00
2018-08-11T19:34:38.608Z,19.80
2018-08-11T19:37:07.931Z,19.80
2018-08-11T19:39:37.259Z,19.70
2018-08-11T19:42:06.593Z,19.60
2018-08-11T19:44:35.879Z,19.70
2018-08-11T19:47:05.334Z,19.60
2018-08-11T19:49:34.635Z,19.60
2018-08-11T19:52:03.991Z,19.40
2018-08-11T19:54:33.321Z,19.30
2018-08-11T19:57:03.018Z,19.20
2018-08-11T19:59:32.515Z,19.30
2018-08-11T20:02:01.845Z,19.20
2018-08-11T20:04:31.151Z,19.20
2018-08-11T20:07:00.546Z,19.30
2018-08-11T20:09:29.822Z,19.20
2018-08-11T20:11:59.165Z,19.10
2018-08-11T20:14:28.442Z,19.10
2018-08-11T20:16:59.020Z,19.20
2018-08-11T20:19:29.655Z,19.30
2018-08-11T20:21:59.629Z,19.50
2018-08-11T20:24:29.813Z,19.50
2018-08-11T20:27:00.883Z,19.20
2018-08-11T20:29:31.170Z,19.00
2018-08-11T20:32:01.530Z,18.90
2018-08-11T20:34:31.553Z,18.70
2018-08-11T20:37:01.732Z,18.60
2018-08-11T20:39:31.952Z,18.40
2018-08-11T20:42:01.866Z,18.60
2018-08-11T20:44:31.942Z,18.70
2018-08-11T20:47:02.668Z,18.80
2018-08-11T20:49:33.124Z,18.60
2018-08-11T20:52:03.119Z,18.40
2018-08-11T20:54:33.267Z,18.30
2018-08-11T20:57:03.131Z,18.50
2018-08-11T20:59:32.478Z,18.60
2018-08-11T21:02:01.815Z,18.60
2018-08-11T21:04:31.239Z,18.70
2018-08-11T21:07:00.872Z,18.70
2018-08-11T21:09:30.219Z,18.70
2018-08-11T21:11:59.506Z,18.70
2018-08-11T21:14:28.822Z,18.80
2018-08-11T21:16:58.647Z,18.70
2018-08-11T21:19:28.004Z,18.60
2018-08-11T21:21:57.497Z,18.60
2018-08-11T21:24:26.826Z,18.50
2018-08-11T21:26:56.115Z,18.40
2018-08-11T21:29:25.500Z,18.40
2018-08-11T21:31:54.788Z,18.40
2018-08-11T21:34:24.156Z,18.40
2018-08-11T21:36:53.522Z,18.20
2018-08-11T21:39:22.827Z,18.10
2018-08-11T21:41:52.131Z,18.20
2018-08-11T21:44:21.492Z,18.20
2018-08-11T21:46:50.795Z,18.00
2018-08-11T21:49:20.134Z,18.10
2018-08-11T21:51:49.443Z,17.90
2018-08-11T21:54:19.122Z,17.80
2018-08-11T21:56:48.441Z,17.80
2018-08-11T21:59:18.126Z,17.70
2018-08-11T22:01:47.493Z,17.90
2018-08-11T22:04:16.804Z,17.80
2018-08-11T22:06:46.169Z,17.90
2018-08-11T22:09:15.486Z,17.80
2018-08-11T22:11:44.851Z,17.90
2018-08-11T22:14:14.154Z,17.80
2018-08-11T22:16:43.609Z,17.70
2018-08-11T22:19:12.908Z,17.70
2018-08-11T22:21:42.270Z,17.70
2018-08-11T22:24:11.564Z,17.60
2018-08-11T22:26:40.910Z,17.70
2018-08-11T22:29:10.196Z,17.60
2018-08-11T22:31:39.512Z,17.50
2018-08-11T22:34:08.828Z,17.40
2018-08-11T22:36:38.183Z,17.30
2018-08-11T22:39:09.083Z,17.30
2018-08-11T22:41:38.446Z,16.90
2018-08-11T22:44:07.801Z,16.90
2018-08-11T22:46:37.401Z,17.00
2018-08-11T22:49:06.751Z,17.00
2018-08-11T22:51:36.056Z,17.10
2018-08-11T22:54:05.393Z,17.10
2018-08-11T22:56:34.720Z,17.10
2018-08-11T22:59:04.067Z,17.10
2018-08-11T23:01:33.393Z,16.90
2018-08-11T23:04:02.746Z,16.70
2018-08-11T23:06:32.058Z,16.70
2018-08-11T23:09:01.388Z,16.70
2018-08-11T23:11:30.703Z,16.60
2018-08-11T23:14:00.079Z,16.60
2018-08-11T23:16:30.465Z,16.30
2018-08-11T23:18:59.804Z,16.20
2018-08-11T23:21:29.147Z,16.50
2018-08-11T23:23:58.462Z,16.50
2018-08-11T23:26:27.931Z,16.50
2018-08-11T23:28:57.278Z,16.40
2018-08-11T23:31:26.596Z,16.40
2018-08-11T23:33:55.995Z,16.30
2018-08-11T23:36:25.324Z,16.20
2018-08-11T23:38:54.749Z,16.10
2018-08-11T23:41:24.067Z,16.00
2018-08-11T23:43:53.409Z,16.20
2018-08-11T23:46:23.057Z,16.10
2018-08-11T23:48:52.519Z,16.20
2018-08-11T23:51:21.828Z,16.20
2018-08-11T23:53:51.108Z,16.30
2018-08-11T23:56:20.543Z,16.20
2018-08-11T23:58:49.880Z,16.20
